sensor_id;sensor_type;location;lat;lon;timestamp;temperature;humidity
15900;DHT22;8048;50.644;6.184;2023-07-29T00:00:44;18.40;99.90
15900;DHT22;8048;50.644;6.184;2023-07-29T00:03:10;18.50;99.90
15900;DHT22;8048;50.644;6.184;2023-07-29T00:05:37;18.50;99.90
15900;DHT22;8048;50.644;6.184;2023-07-29T00:08:03;18.50;99.90
15900;DHT22;8048;50.644;6.184;2023-07-29T00:10:30;18.50;99.90
15900;DHT22;8048;50.644;6.184;2023-07-29T00:12:56;18.50;99.90
15900;DHT22;8048;50.644;6.184;2023-07-29T00:15:21;18.50;99.90
15900;DHT22;8048;50.644;6.184;2023-07-29T00:17:47;18.50;99.90
15900;DHT22;8048;50.644;6.184;2023-07-29T00:20:12;18.50;99.90
15900;DHT22;8048;50.644;6.184;2023-07-29T00:22:38;18.50;99.90
15900;DHT22;8048;50.644;6.184;2023-07-29T00:25:04;18.50;99.90
15900;DHT22;8048;50.644;6.184;2023-07-29T00:27:29;18.50;99.90
15900;DHT22;8048;50.644;6.184;2023-07-29T00:29:55;18.50;99.90
15900;DHT22;8048;50.644;6.184;2023-07-29T00:32:20;18.50;99.90
15900;DHT22;8048;50.644;6.184;2023-07-29T00:34:46;18.40;99.90
15900;DHT22;8048;50.644;6.184;2023-07-29T00:37:11;18.40;99.90
15900;DHT22;8048;50.644;6.184;2023-07-29T00:39:37;18.40;99.90
15900;DHT22;8048;50.644;6.184;2023-07-29T00:42:04;18.40;99.90
15900;DHT22;8048;50.644;6.184;2023-07-29T00:44:29;18.50;99.90
15900;DHT22;8048;50.644;6.184;2023-07-29T00:46:57;18.50;99.90
15900;DHT22;8048;50.644;6.184;2023-07-29T00:49:23;18.50;99.90
15900;DHT22;8048;50.644;6.184;2023-07-29T00:51:49;18.50;99.90
15900;DHT22;8048;50.644;6.184;2023-07-29T00:54:15;18.50;99.90
15900;DHT22;8048;50.644;6.184;2023-07-29T00:56:41;18.50;99.90
15900;DHT22;8048;50.644;6.184;2023-07-29T00:59:06;18.50;99.90
15900;DHT22;8048;50.644;6.184;2023-07-29T01:01:32;18.50;99.90
15900;DHT22;8048;50.644;6.184;2023-07-29T01:03:58;18.40;99.90
15900;DHT22;8048;50.644;6.184;2023-07-29T01:06:34;18.40;99.90
15900;DHT22;8048;50.644;6.184;2023-07-29T01:09:05;18.30;99.90
15900;DHT22;8048;50.644;6.184;2023-07-29T01:14:04;18.10;99.90
15900;DHT22;8048;50.644;6.184;2023-07-29T01:16:39;18.00;99.90
15900;DHT22;8048;50.644;6.184;2023-07-29T01:19:06;18.00;99.90
15900;DHT22;8048;50.644;6.184;2023-07-29T01:21:35;18.10;99.90
15900;DHT22;8048;50.644;6.184;2023-07-29T01:24:02;18.00;99.90
15900;DHT22;8048;50.644;6.184;2023-07-29T01:26:28;17.90;99.90
15900;DHT22;8048;50.644;6.184;2023-07-29T01:28:56;17.80;99.90
15900;DHT22;8048;50.644;6.184;2023-07-29T01:31:32;17.80;99.90
15900;DHT22;8048;50.644;6.184;2023-07-29T01:34:09;17.70;99.90
15900;DHT22;8048;50.644;6.184;2023-07-29T01:36:37;17.70;99.90
15900;DHT22;8048;50.644;6.184;2023-07-29T01:39:06;17.60;99.90
15900;DHT22;8048;50.644;6.184;2023-07-29T01:41:33;17.60;99.90
15900;DHT22;8048;50.644;6.184;2023-07-29T01:43:58;17.60;99.90
15900;DHT22;8048;50.644;6.184;2023-07-29T01:46:25;17.60;99.90
15900;DHT22;8048;50.644;6.184;2023-07-29T01:48:51;17.50;99.90
15900;DHT22;8048;50.644;6.184;2023-07-29T01:51:16;17.50;99.90
15900;DHT22;8048;50.644;6.184;2023-07-29T01:53:42;17.50;99.90
15900;DHT22;8048;50.644;6.184;2023-07-29T01:56:07;17.50;99.90
15900;DHT22;8048;50.644;6.184;2023-07-29T01:58:33;17.50;99.90
15900;DHT22;8048;50.644;6.184;2023-07-29T02:00:58;17.50;99.90
15900;DHT22;8048;50.644;6.184;2023-07-29T02:03:24;17.50;99.90
15900;DHT22;8048;50.644;6.184;2023-07-29T02:05:50;17.60;99.90
15900;DHT22;8048;50.644;6.184;2023-07-29T02:08:15;17.50;99.90
15900;DHT22;8048;50.644;6.184;2023-07-29T02:10:41;17.50;99.90
15900;DHT22;8048;50.644;6.184;2023-07-29T02:13:08;17.50;99.90
15900;DHT22;8048;50.644;6.184;2023-07-29T02:15:33;17.50;99.90
15900;DHT22;8048;50.644;6.184;2023-07-29T02:17:59;17.50;99.90
15900;DHT22;8048;50.644;6.184;2023-07-29T02:20:24;17.50;99.90
15900;DHT22;8048;50.644;6.184;2023-07-29T02:22:50;17.50;99.90
15900;DHT22;8048;50.644;6.184;2023-07-29T02:25:15;17.60;99.90
15900;DHT22;8048;50.644;6.184;2023-07-29T02:27:41;17.50;99.90
15900;DHT22;8048;50.644;6.184;2023-07-29T02:30:07;17.40;99.90
15900;DHT22;8048;50.644;6.184;2023-07-29T02:32:35;17.40;99.90
15900;DHT22;8048;50.644;6.184;2023-07-29T02:35:00;17.40;99.90
15900;DHT22;8048;50.644;6.184;2023-07-29T02:37:26;17.40;99.90
15900;DHT22;8048;50.644;6.184;2023-07-29T02:39:51;17.40;99.90
15900;DHT22;8048;50.644;6.184;2023-07-29T02:42:17;17.40;99.90
15900;DHT22;8048;50.644;6.184;2023-07-29T02:44:42;17.40;99.90
15900;DHT22;8048;50.644;6.184;2023-07-29T02:47:08;17.30;99.90
15900;DHT22;8048;50.644;6.184;2023-07-29T02:49:33;17.30;99.90
15900;DHT22;8048;50.644;6.184;2023-07-29T02:51:59;17.30;99.90
15900;DHT22;8048;50.644;6.184;2023-07-29T02:56:53;17.30;99.90
15900;DHT22;8048;50.644;6.184;2023-07-29T02:59:19;17.30;99.90
15900;DHT22;8048;50.644;6.184;2023-07-29T03:01:45;17.30;99.90
15900;DHT22;8048;50.644;6.184;2023-07-29T03:04:10;17.30;99.90
15900;DHT22;8048;50.644;6.184;2023-07-29T03:06:38;17.30;99.90
15900;DHT22;8048;50.644;6.184;2023-07-29T03:09:04;17.30;99.90
15900;DHT22;8048;50.644;6.184;2023-07-29T03:11:30;17.20;99.90
15900;DHT22;8048;50.644;6.184;2023-07-29T03:13:56;17.20;99.90
15900;DHT22;8048;50.644;6.184;2023-07-29T03:16:22;17.20;99.90
15900;DHT22;8048;50.644;6.184;2023-07-29T03:18:48;17.10;99.90
15900;DHT22;8048;50.644;6.184;2023-07-29T03:21:14;17.10;99.90
15900;DHT22;8048;50.644;6.184;2023-07-29T03:23:40;17.10;99.90
15900;DHT22;8048;50.644;6.184;2023-07-29T03:26:05;17.10;99.90
15900;DHT22;8048;50.644;6.184;2023-07-29T03:28:39;17.10;99.90
15900;DHT22;8048;50.644;6.184;2023-07-29T03:31:04;17.00;99.90
15900;DHT22;8048;50.644;6.184;2023-07-29T03:33:30;17.00;99.90
15900;DHT22;8048;50.644;6.184;2023-07-29T03:35:56;17.00;99.90
15900;DHT22;8048;50.644;6.184;2023-07-29T03:38:21;16.90;99.90
15900;DHT22;8048;50.644;6.184;2023-07-29T03:40:47;16.90;99.90
15900;DHT22;8048;50.644;6.184;2023-07-29T03:43:12;16.90;99.90
15900;DHT22;8048;50.644;6.184;2023-07-29T03:45:39;16.90;99.90
15900;DHT22;8048;50.644;6.184;2023-07-29T03:48:06;16.80;99.90
15900;DHT22;8048;50.644;6.184;2023-07-29T03:50:34;16.80;99.90
15900;DHT22;8048;50.644;6.184;2023-07-29T03:53:03;16.80;99.90
15900;DHT22;8048;50.644;6.184;2023-07-29T03:55:29;16.80;99.90
15900;DHT22;8048;50.644;6.184;2023-07-29T03:57:56;16.80;99.90
15900;DHT22;8048;50.644;6.184;2023-07-29T04:00:21;16.80;99.90
15900;DHT22;8048;50.644;6.184;2023-07-29T04:02:47;16.70;99.90
15900;DHT22;8048;50.644;6.184;2023-07-29T04:05:12;16.70;99.90
15900;DHT22;8048;50.644;6.184;2023-07-29T04:07:38;16.70;99.90
15900;DHT22;8048;50.644;6.184;2023-07-29T04:10:05;16.70;99.90
15900;DHT22;8048;50.644;6.184;2023-07-29T04:12:31;16.70;99.90
15900;DHT22;8048;50.644;6.184;2023-07-29T04:14:56;16.70;99.90
15900;DHT22;8048;50.644;6.184;2023-07-29T04:17:22;16.70;99.90
15900;DHT22;8048;50.644;6.184;2023-07-29T04:19:47;16.70;99.90
15900;DHT22;8048;50.644;6.184;2023-07-29T04:22:14;16.70;99.90
15900;DHT22;8048;50.644;6.184;2023-07-29T04:24:39;16.80;99.90
15900;DHT22;8048;50.644;6.184;2023-07-29T04:27:05;16.80;99.90
15900;DHT22;8048;50.644;6.184;2023-07-29T04:29:31;16.80;99.90
15900;DHT22;8048;50.644;6.184;2023-07-29T04:31:56;16.80;99.90
15900;DHT22;8048;50.644;6.184;2023-07-29T04:34:22;16.90;99.90
15900;DHT22;8048;50.644;6.184;2023-07-29T04:36:48;16.80;99.90
15900;DHT22;8048;50.644;6.184;2023-07-29T04:39:14;16.80;99.90
15900;DHT22;8048;50.644;6.184;2023-07-29T04:41:39;16.80;99.90
15900;DHT22;8048;50.644;6.184;2023-07-29T04:44:05;16.80;99.90
15900;DHT22;8048;50.644;6.184;2023-07-29T04:46:30;16.80;99.90
15900;DHT22;8048;50.644;6.184;2023-07-29T04:48:56;16.80;99.90
15900;DHT22;8048;50.644;6.184;2023-07-29T04:51:22;16.80;99.90
15900;DHT22;8048;50.644;6.184;2023-07-29T04:53:48;16.80;99.90
15900;DHT22;8048;50.644;6.184;2023-07-29T04:56:14;16.80;99.90
15900;DHT22;8048;50.644;6.184;2023-07-29T04:58:39;16.80;99.90
15900;DHT22;8048;50.644;6.184;2023-07-29T05:01:05;16.80;99.90
15900;DHT22;8048;50.644;6.184;2023-07-29T05:03:31;16.80;99.90
15900;DHT22;8048;50.644;6.184;2023-07-29T05:05:58;16.80;99.90
15900;DHT22;8048;50.644;6.184;2023-07-29T05:08:27;16.80;99.90
15900;DHT22;8048;50.644;6.184;2023-07-29T05:10:53;16.80;99.90
15900;DHT22;8048;50.644;6.184;2023-07-29T05:13:22;16.80;99.90
15900;DHT22;8048;50.644;6.184;2023-07-29T05:15:49;16.80;99.90
15900;DHT22;8048;50.644;6.184;2023-07-29T05:18:15;16.80;99.90
15900;DHT22;8048;50.644;6.184;2023-07-29T05:20:41;16.80;99.90
15900;DHT22;8048;50.644;6.184;2023-07-29T05:23:06;16.80;99.90
15900;DHT22;8048;50.644;6.184;2023-07-29T05:25:32;16.80;99.90
15900;DHT22;8048;50.644;6.184;2023-07-29T05:28:00;16.80;99.90
15900;DHT22;8048;50.644;6.184;2023-07-29T05:30:26;16.80;99.90
15900;DHT22;8048;50.644;6.184;2023-07-29T05:32:52;16.90;99.90
15900;DHT22;8048;50.644;6.184;2023-07-29T05:35:17;16.80;99.90
15900;DHT22;8048;50.644;6.184;2023-07-29T05:37:43;16.90;99.90
15900;DHT22;8048;50.644;6.184;2023-07-29T05:40:09;16.90;99.90
15900;DHT22;8048;50.644;6.184;2023-07-29T05:42:35;16.90;99.90
15900;DHT22;8048;50.644;6.184;2023-07-29T05:45:01;16.90;99.90
15900;DHT22;8048;50.644;6.184;2023-07-29T05:47:27;16.90;99.90
15900;DHT22;8048;50.644;6.184;2023-07-29T05:49:52;16.90;99.90
15900;DHT22;8048;50.644;6.184;2023-07-29T05:52:18;16.90;99.90
15900;DHT22;8048;50.644;6.184;2023-07-29T05:54:44;16.90;99.90
15900;DHT22;8048;50.644;6.184;2023-07-29T05:57:11;16.90;99.90
15900;DHT22;8048;50.644;6.184;2023-07-29T05:59:36;16.90;99.90
15900;DHT22;8048;50.644;6.184;2023-07-29T06:02:02;16.90;99.90
15900;DHT22;8048;50.644;6.184;2023-07-29T06:04:28;16.90;99.90
15900;DHT22;8048;50.644;6.184;2023-07-29T06:06:54;16.90;99.90
15900;DHT22;8048;50.644;6.184;2023-07-29T06:09:21;16.90;99.90
15900;DHT22;8048;50.644;6.184;2023-07-29T06:11:46;16.90;99.90
15900;DHT22;8048;50.644;6.184;2023-07-29T06:14:12;16.90;99.90
15900;DHT22;8048;50.644;6.184;2023-07-29T06:16:37;17.00;99.90
15900;DHT22;8048;50.644;6.184;2023-07-29T06:19:03;16.90;99.90
15900;DHT22;8048;50.644;6.184;2023-07-29T06:21:29;17.00;99.90
15900;DHT22;8048;50.644;6.184;2023-07-29T06:23:54;17.00;99.90
15900;DHT22;8048;50.644;6.184;2023-07-29T06:26:20;17.00;99.90
15900;DHT22;8048;50.644;6.184;2023-07-29T06:28:45;17.10;99.90
15900;DHT22;8048;50.644;6.184;2023-07-29T06:31:11;17.10;99.90
15900;DHT22;8048;50.644;6.184;2023-07-29T06:33:36;17.10;99.90
15900;DHT22;8048;50.644;6.184;2023-07-29T06:36:02;17.20;99.90
15900;DHT22;8048;50.644;6.184;2023-07-29T06:38:27;17.30;99.90
15900;DHT22;8048;50.644;6.184;2023-07-29T06:40:53;17.30;99.90
15900;DHT22;8048;50.644;6.184;2023-07-29T06:43:18;17.40;99.90
15900;DHT22;8048;50.644;6.184;2023-07-29T06:45:44;17.40;99.90
15900;DHT22;8048;50.644;6.184;2023-07-29T06:48:09;17.40;99.90
15900;DHT22;8048;50.644;6.184;2023-07-29T06:50:35;17.50;99.90
15900;DHT22;8048;50.644;6.184;2023-07-29T06:53:00;17.50;99.90
15900;DHT22;8048;50.644;6.184;2023-07-29T06:55:26;17.50;99.90
15900;DHT22;8048;50.644;6.184;2023-07-29T06:57:51;17.50;99.90
15900;DHT22;8048;50.644;6.184;2023-07-29T07:00:17;17.50;99.90
15900;DHT22;8048;50.644;6.184;2023-07-29T07:02:43;17.60;99.90
15900;DHT22;8048;50.644;6.184;2023-07-29T07:05:09;17.60;99.90
15900;DHT22;8048;50.644;6.184;2023-07-29T07:07:34;17.70;99.90
15900;DHT22;8048;50.644;6.184;2023-07-29T07:10:00;17.70;99.90
15900;DHT22;8048;50.644;6.184;2023-07-29T07:12:25;17.70;99.90
15900;DHT22;8048;50.644;6.184;2023-07-29T07:14:51;17.70;99.90
15900;DHT22;8048;50.644;6.184;2023-07-29T07:17:17;17.80;99.90
15900;DHT22;8048;50.644;6.184;2023-07-29T07:19:43;17.80;99.90
15900;DHT22;8048;50.644;6.184;2023-07-29T07:22:09;17.90;99.90
15900;DHT22;8048;50.644;6.184;2023-07-29T07:24:34;17.80;99.90
15900;DHT22;8048;50.644;6.184;2023-07-29T07:27:00;17.90;99.90
15900;DHT22;8048;50.644;6.184;2023-07-29T07:29:25;18.00;99.90
15900;DHT22;8048;50.644;6.184;2023-07-29T07:31:52;18.10;99.90
15900;DHT22;8048;50.644;6.184;2023-07-29T07:34:19;18.20;99.90
15900;DHT22;8048;50.644;6.184;2023-07-29T07:36:45;18.40;99.90
15900;DHT22;8048;50.644;6.184;2023-07-29T07:39:10;18.50;99.90
15900;DHT22;8048;50.644;6.184;2023-07-29T07:41:36;18.50;99.90
15900;DHT22;8048;50.644;6.184;2023-07-29T07:44:01;18.60;99.90
15900;DHT22;8048;50.644;6.184;2023-07-29T07:46:28;18.60;99.90
15900;DHT22;8048;50.644;6.184;2023-07-29T07:48:54;18.60;99.90
15900;DHT22;8048;50.644;6.184;2023-07-29T07:51:19;18.60;99.90
15900;DHT22;8048;50.644;6.184;2023-07-29T07:53:45;18.60;99.90
15900;DHT22;8048;50.644;6.184;2023-07-29T07:56:10;18.80;99.90
15900;DHT22;8048;50.644;6.184;2023-07-29T07:58:36;18.80;99.90
15900;DHT22;8048;50.644;6.184;2023-07-29T08:01:03;18.90;99.90
15900;DHT22;8048;50.644;6.184;2023-07-29T08:03:29;18.90;99.90
15900;DHT22;8048;50.644;6.184;2023-07-29T08:05:55;18.90;99.90
15900;DHT22;8048;50.644;6.184;2023-07-29T08:08:20;18.90;99.90
15900;DHT22;8048;50.644;6.184;2023-07-29T08:10:45;18.80;99.90
15900;DHT22;8048;50.644;6.184;2023-07-29T08:13:11;18.80;99.90
15900;DHT22;8048;50.644;6.184;2023-07-29T08:15:36;18.60;99.90
15900;DHT22;8048;50.644;6.184;2023-07-29T08:18:02;18.50;99.90
15900;DHT22;8048;50.644;6.184;2023-07-29T08:20:28;18.50;99.90
15900;DHT22;8048;50.644;6.184;2023-07-29T08:22:53;18.50;99.90
15900;DHT22;8048;50.644;6.184;2023-07-29T08:25:19;18.40;99.90
15900;DHT22;8048;50.644;6.184;2023-07-29T08:27:44;18.40;99.90
15900;DHT22;8048;50.644;6.184;2023-07-29T08:30:10;18.40;99.90
15900;DHT22;8048;50.644;6.184;2023-07-29T08:32:36;18.40;99.90
15900;DHT22;8048;50.644;6.184;2023-07-29T08:35:01;18.50;99.90
15900;DHT22;8048;50.644;6.184;2023-07-29T08:37:27;18.50;99.90
15900;DHT22;8048;50.644;6.184;2023-07-29T08:39:52;18.60;99.90
15900;DHT22;8048;50.644;6.184;2023-07-29T08:42:19;18.80;99.90
15900;DHT22;8048;50.644;6.184;2023-07-29T08:44:49;18.80;99.90
15900;DHT22;8048;50.644;6.184;2023-07-29T08:47:15;18.90;99.90
15900;DHT22;8048;50.644;6.184;2023-07-29T08:49:42;19.00;99.90
15900;DHT22;8048;50.644;6.184;2023-07-29T08:52:09;19.10;99.90
15900;DHT22;8048;50.644;6.184;2023-07-29T08:54:35;19.20;99.90
15900;DHT22;8048;50.644;6.184;2023-07-29T08:57:00;19.30;99.90
15900;DHT22;8048;50.644;6.184;2023-07-29T08:59:28;19.30;99.90
15900;DHT22;8048;50.644;6.184;2023-07-29T09:01:54;19.50;99.90
15900;DHT22;8048;50.644;6.184;2023-07-29T09:04:23;19.60;99.90
15900;DHT22;8048;50.644;6.184;2023-07-29T09:06:51;19.70;99.90
15900;DHT22;8048;50.644;6.184;2023-07-29T09:09:16;19.80;99.90
15900;DHT22;8048;50.644;6.184;2023-07-29T09:11:43;19.90;99.90
15900;DHT22;8048;50.644;6.184;2023-07-29T09:14:09;19.90;99.90
15900;DHT22;8048;50.644;6.184;2023-07-29T09:16:35;19.90;99.90
15900;DHT22;8048;50.644;6.184;2023-07-29T09:19:02;19.80;99.90
15900;DHT22;8048;50.644;6.184;2023-07-29T09:21:29;19.80;99.90
15900;DHT22;8048;50.644;6.184;2023-07-29T09:23:55;19.80;99.90
15900;DHT22;8048;50.644;6.184;2023-07-29T09:26:25;19.80;99.90
15900;DHT22;8048;50.644;6.184;2023-07-29T09:28:53;19.80;99.90
15900;DHT22;8048;50.644;6.184;2023-07-29T09:31:20;19.80;99.90
15900;DHT22;8048;50.644;6.184;2023-07-29T09:33:46;19.70;99.90
15900;DHT22;8048;50.644;6.184;2023-07-29T09:36:12;19.70;99.90
15900;DHT22;8048;50.644;6.184;2023-07-29T09:38:37;19.70;99.90
15900;DHT22;8048;50.644;6.184;2023-07-29T09:41:03;19.60;99.90
15900;DHT22;8048;50.644;6.184;2023-07-29T09:43:32;19.50;99.90
15900;DHT22;8048;50.644;6.184;2023-07-29T09:46:02;19.40;99.90
15900;DHT22;8048;50.644;6.184;2023-07-29T09:48:32;19.40;99.90
15900;DHT22;8048;50.644;6.184;2023-07-29T09:50:57;19.40;99.90
15900;DHT22;8048;50.644;6.184;2023-07-29T09:53:24;19.40;99.90
15900;DHT22;8048;50.644;6.184;2023-07-29T09:55:50;19.30;99.90
15900;DHT22;8048;50.644;6.184;2023-07-29T09:58:22;19.30;99.90
15900;DHT22;8048;50.644;6.184;2023-07-29T10:00:51;19.20;99.90
15900;DHT22;8048;50.644;6.184;2023-07-29T10:03:18;19.20;99.90
15900;DHT22;8048;50.644;6.184;2023-07-29T10:05:46;19.20;99.90
15900;DHT22;8048;50.644;6.184;2023-07-29T10:08:13;19.10;99.90
15900;DHT22;8048;50.644;6.184;2023-07-29T10:10:41;19.00;99.90
15900;DHT22;8048;50.644;6.184;2023-07-29T10:13:07;19.00;99.90
15900;DHT22;8048;50.644;6.184;2023-07-29T10:15:33;19.00;99.90
15900;DHT22;8048;50.644;6.184;2023-07-29T10:17:59;19.00;99.90
15900;DHT22;8048;50.644;6.184;2023-07-29T10:20:24;19.00;99.90
15900;DHT22;8048;50.644;6.184;2023-07-29T10:22:51;19.00;99.90
15900;DHT22;8048;50.644;6.184;2023-07-29T10:25:24;19.00;99.90
15900;DHT22;8048;50.644;6.184;2023-07-29T10:28:04;19.20;99.90
15900;DHT22;8048;50.644;6.184;2023-07-29T10:30:30;19.20;99.90
15900;DHT22;8048;50.644;6.184;2023-07-29T10:32:58;19.50;99.90
15900;DHT22;8048;50.644;6.184;2023-07-29T10:35:24;19.70;99.90
15900;DHT22;8048;50.644;6.184;2023-07-29T10:37:51;19.90;99.90
15900;DHT22;8048;50.644;6.184;2023-07-29T10:40:18;19.90;99.90
15900;DHT22;8048;50.644;6.184;2023-07-29T10:43:09;20.00;99.90
15900;DHT22;8048;50.644;6.184;2023-07-29T10:45:39;20.20;99.90
15900;DHT22;8048;50.644;6.184;2023-07-29T10:51:24;20.60;99.90
15900;DHT22;8048;50.644;6.184;2023-07-29T10:54:10;20.90;99.90
15900;DHT22;8048;50.644;6.184;2023-07-29T10:56:37;21.30;99.90
15900;DHT22;8048;50.644;6.184;2023-07-29T11:01:50;22.00;99.90
15900;DHT22;8048;50.644;6.184;2023-07-29T11:04:29;22.00;99.90
15900;DHT22;8048;50.644;6.184;2023-07-29T11:12:39;23.00;99.90
15900;DHT22;8048;50.644;6.184;2023-07-29T11:17:39;23.50;99.90
15900;DHT22;8048;50.644;6.184;2023-07-29T11:20:06;23.60;98.60
15900;DHT22;8048;50.644;6.184;2023-07-29T11:22:35;23.80;99.90
15900;DHT22;8048;50.644;6.184;2023-07-29T11:25:01;23.90;99.90
15900;DHT22;8048;50.644;6.184;2023-07-29T11:27:27;24.20;99.90
15900;DHT22;8048;50.644;6.184;2023-07-29T11:30:00;24.40;98.20
15900;DHT22;8048;50.644;6.184;2023-07-29T11:32:27;24.30;98.40
15900;DHT22;8048;50.644;6.184;2023-07-29T11:34:53;24.30;99.50
15900;DHT22;8048;50.644;6.184;2023-07-29T11:37:19;24.40;99.80
15900;DHT22;8048;50.644;6.184;2023-07-29T11:39:46;24.20;98.60
15900;DHT22;8048;50.644;6.184;2023-07-29T11:42:13;24.00;98.10
15900;DHT22;8048;50.644;6.184;2023-07-29T11:44:38;23.70;98.20
15900;DHT22;8048;50.644;6.184;2023-07-29T11:47:11;23.80;98.90
15900;DHT22;8048;50.644;6.184;2023-07-29T11:49:39;23.80;99.30
15900;DHT22;8048;50.644;6.184;2023-07-29T11:52:09;23.50;99.40
15900;DHT22;8048;50.644;6.184;2023-07-29T11:54:38;23.30;98.60
15900;DHT22;8048;50.644;6.184;2023-07-29T11:57:06;23.50;98.90
15900;DHT22;8048;50.644;6.184;2023-07-29T11:59:34;23.90;99.80
15900;DHT22;8048;50.644;6.184;2023-07-29T12:02:14;24.30;99.40
15900;DHT22;8048;50.644;6.184;2023-07-29T12:04:41;24.80;98.70
15900;DHT22;8048;50.644;6.184;2023-07-29T12:07:08;25.10;97.70
15900;DHT22;8048;50.644;6.184;2023-07-29T12:09:37;25.00;98.00
15900;DHT22;8048;50.644;6.184;2023-07-29T12:12:06;25.20;98.60
15900;DHT22;8048;50.644;6.184;2023-07-29T12:14:32;25.10;97.20
15900;DHT22;8048;50.644;6.184;2023-07-29T12:17:02;25.10;98.20
15900;DHT22;8048;50.644;6.184;2023-07-29T12:19:38;25.30;96.90
15900;DHT22;8048;50.644;6.184;2023-07-29T12:22:06;25.10;96.20
15900;DHT22;8048;50.644;6.184;2023-07-29T12:24:33;24.90;96.40
15900;DHT22;8048;50.644;6.184;2023-07-29T12:26:59;24.60;95.40
15900;DHT22;8048;50.644;6.184;2023-07-29T12:29:25;24.30;97.30
15900;DHT22;8048;50.644;6.184;2023-07-29T12:31:59;24.00;97.10
15900;DHT22;8048;50.644;6.184;2023-07-29T12:34:27;23.70;96.80
15900;DHT22;8048;50.644;6.184;2023-07-29T12:36:57;23.30;97.30
15900;DHT22;8048;50.644;6.184;2023-07-29T12:39:25;23.20;99.60
15900;DHT22;8048;50.644;6.184;2023-07-29T12:41:56;23.10;99.90
15900;DHT22;8048;50.644;6.184;2023-07-29T12:44:27;23.10;99.90
15900;DHT22;8048;50.644;6.184;2023-07-29T12:46:52;23.00;99.90
15900;DHT22;8048;50.644;6.184;2023-07-29T12:49:18;23.00;99.90
15900;DHT22;8048;50.644;6.184;2023-07-29T12:51:45;22.90;99.90
15900;DHT22;8048;50.644;6.184;2023-07-29T12:54:10;23.00;99.90
15900;DHT22;8048;50.644;6.184;2023-07-29T12:56:36;23.20;99.90
15900;DHT22;8048;50.644;6.184;2023-07-29T12:59:02;23.40;99.90
15900;DHT22;8048;50.644;6.184;2023-07-29T13:01:28;23.60;99.90
15900;DHT22;8048;50.644;6.184;2023-07-29T13:03:54;23.70;99.90
15900;DHT22;8048;50.644;6.184;2023-07-29T13:06:21;23.90;99.90
15900;DHT22;8048;50.644;6.184;2023-07-29T13:08:47;24.20;99.90
15900;DHT22;8048;50.644;6.184;2023-07-29T13:11:13;24.30;99.80
15900;DHT22;8048;50.644;6.184;2023-07-29T13:13:39;24.40;99.60
15900;DHT22;8048;50.644;6.184;2023-07-29T13:16:04;24.40;99.40
15900;DHT22;8048;50.644;6.184;2023-07-29T13:18:31;24.30;99.30
15900;DHT22;8048;50.644;6.184;2023-07-29T13:20:57;24.10;98.30
15900;DHT22;8048;50.644;6.184;2023-07-29T13:23:22;23.90;99.10
15900;DHT22;8048;50.644;6.184;2023-07-29T13:25:48;23.90;99.90
15900;DHT22;8048;50.644;6.184;2023-07-29T13:28:14;24.10;99.90
15900;DHT22;8048;50.644;6.184;2023-07-29T13:30:39;24.40;99.30
15900;DHT22;8048;50.644;6.184;2023-07-29T13:33:08;24.60;99.90
15900;DHT22;8048;50.644;6.184;2023-07-29T13:35:34;24.70;98.40
15900;DHT22;8048;50.644;6.184;2023-07-29T13:38:01;24.70;98.70
15900;DHT22;8048;50.644;6.184;2023-07-29T13:40:26;24.60;98.10
15900;DHT22;8048;50.644;6.184;2023-07-29T13:42:52;24.40;97.00
15900;DHT22;8048;50.644;6.184;2023-07-29T13:45:18;24.20;95.90
15900;DHT22;8048;50.644;6.184;2023-07-29T13:47:44;24.50;97.40
15900;DHT22;8048;50.644;6.184;2023-07-29T13:50:09;24.40;95.50
15900;DHT22;8048;50.644;6.184;2023-07-29T13:52:36;24.30;95.50
15900;DHT22;8048;50.644;6.184;2023-07-29T13:55:03;24.20;96.70
15900;DHT22;8048;50.644;6.184;2023-07-29T13:57:28;24.10;95.60
15900;DHT22;8048;50.644;6.184;2023-07-29T13:59:54;23.90;98.00
15900;DHT22;8048;50.644;6.184;2023-07-29T14:02:19;23.90;98.10
15900;DHT22;8048;50.644;6.184;2023-07-29T14:04:45;23.70;98.50
15900;DHT22;8048;50.644;6.184;2023-07-29T14:07:10;23.60;98.40
15900;DHT22;8048;50.644;6.184;2023-07-29T14:09:36;23.50;98.70
15900;DHT22;8048;50.644;6.184;2023-07-29T14:12:04;23.50;98.50
15900;DHT22;8048;50.644;6.184;2023-07-29T14:14:29;23.40;99.00
15900;DHT22;8048;50.644;6.184;2023-07-29T14:16:55;23.30;99.00
15900;DHT22;8048;50.644;6.184;2023-07-29T14:19:20;23.10;99.20
15900;DHT22;8048;50.644;6.184;2023-07-29T14:21:46;23.00;99.60
15900;DHT22;8048;50.644;6.184;2023-07-29T14:24:12;22.90;99.90
15900;DHT22;8048;50.644;6.184;2023-07-29T14:26:37;22.70;99.90
15900;DHT22;8048;50.644;6.184;2023-07-29T14:29:03;22.50;99.90
15900;DHT22;8048;50.644;6.184;2023-07-29T14:31:28;22.20;99.90
15900;DHT22;8048;50.644;6.184;2023-07-29T14:33:54;21.80;99.90
15900;DHT22;8048;50.644;6.184;2023-07-29T14:36:19;21.40;99.00
15900;DHT22;8048;50.644;6.184;2023-07-29T14:38:45;21.00;99.40
15900;DHT22;8048;50.644;6.184;2023-07-29T14:41:10;20.70;99.90
15900;DHT22;8048;50.644;6.184;2023-07-29T14:43:36;20.50;99.90
15900;DHT22;8048;50.644;6.184;2023-07-29T14:46:02;20.50;99.90
15900;DHT22;8048;50.644;6.184;2023-07-29T14:48:27;20.50;99.90
15900;DHT22;8048;50.644;6.184;2023-07-29T14:50:53;20.50;99.90
15900;DHT22;8048;50.644;6.184;2023-07-29T14:53:19;20.60;99.90
15900;DHT22;8048;50.644;6.184;2023-07-29T14:55:45;20.70;99.90
15900;DHT22;8048;50.644;6.184;2023-07-29T14:58:10;20.70;99.90
15900;DHT22;8048;50.644;6.184;2023-07-29T15:00:36;20.80;99.90
15900;DHT22;8048;50.644;6.184;2023-07-29T15:03:01;20.80;99.90
15900;DHT22;8048;50.644;6.184;2023-07-29T15:05:27;20.80;99.90
15900;DHT22;8048;50.644;6.184;2023-07-29T15:07:53;20.90;99.90
15900;DHT22;8048;50.644;6.184;2023-07-29T15:10:18;20.80;99.90
15900;DHT22;8048;50.644;6.184;2023-07-29T15:12:44;20.80;99.90
15900;DHT22;8048;50.644;6.184;2023-07-29T15:15:11;20.70;99.90
15900;DHT22;8048;50.644;6.184;2023-07-29T15:17:37;20.60;99.90
15900;DHT22;8048;50.644;6.184;2023-07-29T15:20:03;20.60;99.90
15900;DHT22;8048;50.644;6.184;2023-07-29T15:22:29;20.60;99.90
15900;DHT22;8048;50.644;6.184;2023-07-29T15:24:57;21.00;99.90
15900;DHT22;8048;50.644;6.184;2023-07-29T15:27:22;21.30;99.90
15900;DHT22;8048;50.644;6.184;2023-07-29T15:29:48;21.70;99.90
15900;DHT22;8048;50.644;6.184;2023-07-29T15:32:13;22.00;99.90
15900;DHT22;8048;50.644;6.184;2023-07-29T15:34:39;22.40;99.90
15900;DHT22;8048;50.644;6.184;2023-07-29T15:37:05;22.40;99.90
15900;DHT22;8048;50.644;6.184;2023-07-29T15:39:30;22.60;99.90
15900;DHT22;8048;50.644;6.184;2023-07-29T15:41:56;22.90;99.90
15900;DHT22;8048;50.644;6.184;2023-07-29T15:44:22;22.90;99.90
15900;DHT22;8048;50.644;6.184;2023-07-29T15:46:48;22.70;99.90
15900;DHT22;8048;50.644;6.184;2023-07-29T15:49:17;22.60;99.90
15900;DHT22;8048;50.644;6.184;2023-07-29T15:51:42;22.40;99.90
15900;DHT22;8048;50.644;6.184;2023-07-29T15:54:08;22.20;99.90
15900;DHT22;8048;50.644;6.184;2023-07-29T15:56:33;22.10;99.90
15900;DHT22;8048;50.644;6.184;2023-07-29T15:59:01;21.90;99.90